Time;durP1;ratioP1;P1;durP2;ratioP2;P2;SDS_P1;SDS_P2;PMS_P1;PMS_P2;Temp;Humidity;BMP_temperature;BMP_pressure;BME280_temperature;BME280_humidity;BME280_pressure;Samples;Min_cycle;Max_cycle;Signal;HPM_P1;HPM_P2
2023/01/12 00:01:54;;;;;;;9.90;3.83;;;26.30;99.90;;;;;;4974573;28;20191;-75
2023/01/12 00:04:22;;;;;;;5.20;2.80;;;26.70;99.90;;;;;;4974776;28;20269;-71
2023/01/12 00:06:49;;;;;;;6.97;2.60;;;27.10;99.90;;;;;;4975146;28;20181;-69
2023/01/12 00:09:17;;;;;;;7.07;2.67;;;27.50;99.90;;;;;;4974429;28;20179;-75
2023/01/12 00:11:44;;;;;;;5.83;2.27;;;27.50;99.90;;;;;;4974656;28;20175;-71
2023/01/12 00:14:11;;;;;;;5.67;2.43;;;27.70;99.90;;;;;;4974528;28;20223;-69
2023/01/12 00:16:42;;;;;;;9.63;2.57;;;28.20;99.90;;;;;;4975079;28;20270;-68
2023/01/12 00:19:16;;;;;;;7.70;3.33;;;28.20;99.90;;;;;;4975856;28;20211;-69
2023/01/12 00:27:44;;;;;;;5.33;2.23;;;28.20;99.90;;;;;;4967271;28;20210;-69
2023/01/12 00:30:12;;;;;;;21.63;2.87;;;28.10;99.90;;;;;;4973837;28;20266;-68
2023/01/12 00:32:40;;;;;;;14.90;2.53;;;28.30;99.90;;;;;;4974833;28;20201;-70
2023/01/12 00:35:07;;;;;;;5.20;2.33;;;28.80;99.90;;;;;;4974357;28;20298;-74
2023/01/12 00:37:35;;;;;;;15.67;2.53;;;29.30;99.90;;;;;;4970625;28;20629;-75
2023/01/12 00:40:02;;;;;;;10.60;2.13;;;30.10;99.90;;;;;;4970870;28;20187;-68
2023/01/12 00:45:42;;;;;;;5.47;2.07;;;29.40;99.90;;;;;;4969907;28;20309;-69
2023/01/12 00:48:14;;;;;;;3.17;1.60;;;29.90;99.90;;;;;;4970288;28;20267;-77
2023/01/12 00:50:41;;;;;;;6.20;2.03;;;30.60;99.90;;;;;;4969964;28;20175;-70
2023/01/12 00:53:09;;;;;;;3.77;1.87;;;31.00;99.90;;;;;;4970644;28;20187;-72
2023/01/12 00:55:36;;;;;;;7.87;1.63;;;31.00;99.90;;;;;;4967266;28;20183;-68
2023/01/12 00:58:03;;;;;;;18.00;2.37;;;31.10;99.90;;;;;;4969122;28;20688;-69
2023/01/12 01:00:31;;;;;;;6.40;1.83;;;30.30;99.90;;;;;;4969339;28;20274;-69
2023/01/12 01:02:58;;;;;;;7.47;1.83;;;29.90;99.90;;;;;;4968777;28;20219;-69
2023/01/12 01:05:26;;;;;;;6.87;1.90;;;29.30;99.90;;;;;;4970322;28;20180;-79
2023/01/12 01:07:53;;;;;;;4.97;2.10;;;29.00;99.90;;;;;;4971831;28;20179;-78
2023/01/12 01:10:20;;;;;;;5.63;1.90;;;29.60;99.90;;;;;;4991214;28;20564;-71
2023/01/12 01:12:48;;;;;;;3.03;1.57;;;30.50;99.90;;;;;;4988003;28;20175;-72
2023/01/12 01:15:15;;;;;;;5.20;2.20;;;31.40;99.90;;;;;;4973089;28;20268;-78
2023/01/12 01:17:43;;;;;;;9.93;2.13;;;31.70;99.90;;;;;;4972582;28;20396;-69
2023/01/12 01:20:11;;;;;;;6.80;2.50;;;31.80;99.90;;;;;;4972822;28;20186;-80
2023/01/12 01:22:38;;;;;;;6.30;2.00;;;31.60;99.90;;;;;;4973123;28;20226;-74
2023/01/12 01:25:06;;;;;;;7.03;2.17;;;32.00;99.90;;;;;;4973414;28;20539;-76
2023/01/12 01:27:34;;;;;;;8.90;2.05;;;32.60;99.90;;;;;;4973681;28;20167;-74
2023/01/12 01:30:01;;;;;;;3.13;1.37;;;32.30;99.90;;;;;;4973059;28;20189;-76
2023/01/12 01:32:29;;;;;;;6.20;2.33;;;32.40;99.90;;;;;;4973269;28;20211;-77
2023/01/12 01:34:56;;;;;;;3.13;1.70;;;32.60;99.90;;;;;;4973475;28;20213;-81
2023/01/12 01:37:23;;;;;;;3.40;1.57;;;32.10;99.90;;;;;;4973346;28;20272;-69
2023/01/12 01:39:51;;;;;;;6.10;2.40;;;32.40;99.90;;;;;;4955871;28;20210;-74
2023/01/12 01:42:27;;;;;;;6.17;2.00;;;32.70;99.90;;;;;;4955564;28;20175;-82
2023/01/12 01:44:56;;;;;;;4.57;1.67;;;33.00;99.90;;;;;;4955713;28;20226;-76
2023/01/12 01:47:47;;;;;;;7.10;2.03;;;33.20;99.90;;;;;;4972360;28;20190;-74
2023/01/12 01:50:43;;;;;;;4.22;1.65;;;33.80;99.90;;;;;;4972675;28;20190;-79
2023/01/12 01:53:15;;;;;;;3.70;1.75;;;33.90;99.90;;;;;;4975541;28;20206;-68
2023/01/12 01:55:50;;;;;;;4.22;1.80;;;34.00;99.90;;;;;;4976814;28;20305;-69
2023/01/12 01:58:23;;;;;;;5.07;1.73;;;34.10;99.90;;;;;;4972777;28;20183;-76
2023/01/12 02:00:51;;;;;;;5.32;1.75;;;33.80;99.90;;;;;;4972542;28;20184;-68
2023/01/12 02:03:19;;;;;;;8.32;1.98;;;33.50;99.90;;;;;;4972494;28;20562;-73
2023/01/12 02:05:49;;;;;;;7.32;1.85;;;32.80;99.90;;;;;;4972238;28;20187;-74
2023/01/12 02:08:54;;;;;;;5.88;1.95;;;32.00;99.90;;;;;;4971902;28;20179;-75
2023/01/12 02:17:13;;;;;;;4.55;1.88;;;33.60;99.90;;;;;;4971114;28;20623;-72
2023/01/12 02:20:00;;;;;;;7.15;1.95;;;33.40;99.90;;;;;;4977734;28;20195;-71
2023/01/12 02:22:45;;;;;;;6.20;2.30;;;32.40;99.90;;;;;;4991631;28;20213;-69
2023/01/12 02:25:30;;;;;;;5.47;2.05;;;32.00;99.90;;;;;;4973178;28;20289;-73
2023/01/12 02:28:27;;;;;;;5.63;2.20;;;32.00;99.90;;;;;;4971571;28;20269;-73
2023/01/12 02:31:07;;;;;;;5.32;1.98;;;31.90;99.90;;;;;;4971686;28;20198;-71
2023/01/12 02:33:59;;;;;;;6.80;2.80;;;32.00;99.90;;;;;;4976248;28;20207;-72
2023/01/12 02:37:00;;;;;;;8.45;2.53;;;32.20;99.90;;;;;;4976459;28;20183;-72
2023/01/12 02:39:33;;;;;;;6.13;2.40;;;32.20;99.90;;;;;;4975194;28;20672;-71
2023/01/12 02:42:40;;;;;;;5.47;2.60;;;31.70;99.90;;;;;;4975636;28;20194;-75
2023/01/12 02:45:16;;;;;;;9.57;2.80;;;32.00;99.90;;;;;;4963378;28;20222;-70
2023/01/12 02:47:52;;;;;;;7.37;2.60;;;31.60;99.90;;;;;;4975002;28;20183;-72
2023/01/12 02:50:41;;;;;;;7.80;3.33;;;31.40;99.90;;;;;;4958814;28;20283;-71
2023/01/12 02:53:34;;;;;;;10.90;3.37;;;31.10;99.90;;;;;;4975027;28;20179;-71
2023/01/12 02:56:05;;;;;;;5.27;2.97;;;31.10;99.90;;;;;;4955850;29;20227;-73
2023/01/12 02:58:36;;;;;;;11.77;3.50;;;31.60;99.90;;;;;;4964040;28;20187;-71
2023/01/12 03:01:06;;;;;;;7.50;3.33;;;31.40;99.90;;;;;;4975705;28;20270;-71
2023/01/12 03:03:34;;;;;;;5.10;3.40;;;31.20;99.90;;;;;;4974972;28;20215;-70
2023/01/12 03:06:01;;;;;;;7.87;3.50;;;31.20;99.90;;;;;;4972320;28;20210;-70
2023/01/12 03:08:31;;;;;;;9.57;3.37;;;31.50;99.90;;;;;;4974629;28;20187;-75
2023/01/12 03:11:37;;;;;;;10.23;4.23;;;31.50;99.90;;;;;;4975039;28;20183;-72
2023/01/12 03:14:06;;;;;;;9.20;4.40;;;31.70;99.90;;;;;;4972220;28;20281;-70
2023/01/12 03:16:35;;;;;;;7.87;3.67;;;32.10;99.90;;;;;;4974606;28;20194;-74
2023/01/12 03:19:10;;;;;;;9.83;4.10;;;31.90;99.90;;;;;;4969654;28;20194;-70
2023/01/12 03:22:09;;;;;;;13.10;4.20;;;31.70;99.90;;;;;;4975461;28;20179;-70
2023/01/12 03:24:47;;;;;;;5.60;3.87;;;31.90;99.90;;;;;;4971084;28;20230;-71
2023/01/12 03:27:37;;;;;;;10.27;4.60;;;31.50;99.90;;;;;;4974885;28;20179;-71
2023/01/12 03:30:24;;;;;;;11.03;4.70;;;31.30;99.90;;;;;;4975252;28;20180;-71
2023/01/12 03:32:52;;;;;;;12.83;4.70;;;31.70;99.90;;;;;;4975201;28;20511;-73
2023/01/12 03:35:23;;;;;;;8.70;4.70;;;31.90;99.90;;;;;;4975069;28;20183;-74
2023/01/12 03:38:18;;;;;;;7.27;4.53;;;31.80;99.90;;;;;;4957340;28;20175;-72
2023/01/12 03:41:05;;;;;;;6.53;4.73;;;31.80;99.90;;;;;;4981251;28;20183;-72
2023/01/12 03:43:43;;;;;;;11.43;4.03;;;31.50;99.90;;;;;;4993582;28;20225;-73
2023/01/12 03:46:43;;;;;;;9.30;4.13;;;31.30;99.90;;;;;;4987504;28;20241;-71
2023/01/12 03:49:16;;;;;;;8.80;4.40;;;31.10;99.90;;;;;;4974456;28;20187;-72
2023/01/12 03:51:47;;;;;;;8.17;4.37;;;31.30;99.90;;;;;;4974765;28;20665;-74
2023/01/12 03:54:17;;;;;;;12.00;4.67;;;31.70;99.90;;;;;;4974601;28;20175;-71
2023/01/12 03:56:45;;;;;;;6.27;4.37;;;31.70;99.90;;;;;;4974520;28;20245;-73
2023/01/12 03:59:13;;;;;;;6.57;4.13;;;31.70;99.90;;;;;;4974699;28;20199;-74
2023/01/12 04:01:42;;;;;;;6.20;4.50;;;31.90;99.90;;;;;;4974679;28;20179;-71
2023/01/12 04:04:09;;;;;;;5.17;3.20;;;31.90;99.90;;;;;;4974123;28;20622;-72
2023/01/12 04:06:36;;;;;;;7.40;4.07;;;31.80;99.90;;;;;;4973955;28;20660;-71
2023/01/12 04:09:04;;;;;;;6.57;4.10;;;31.90;99.90;;;;;;4974433;28;20183;-71
2023/01/12 04:14:16;;;;;;;5.23;4.07;;;31.50;99.90;;;;;;4973990;28;20289;-70
2023/01/12 04:16:45;;;;;;;9.33;4.70;;;31.60;99.90;;;;;;4974039;28;20727;-71
2023/01/12 04:19:13;;;;;;;9.18;4.38;;;31.70;99.90;;;;;;4980210;28;20194;-70
2023/01/12 04:24:25;;;;;;;8.70;3.80;;;31.20;99.90;;;;;;4974254;28;20225;-71
2023/01/12 04:26:53;;;;;;;5.67;3.63;;;31.00;99.90;;;;;;4956348;28;20195;-71
2023/01/12 04:29:20;;;;;;;5.70;4.37;;;31.00;99.90;;;;;;4974074;28;20172;-72
2023/01/12 04:31:48;;;;;;;9.57;4.53;;;31.00;99.90;;;;;;4973476;28;20225;-73
2023/01/12 04:34:15;;;;;;;7.73;3.90;;;31.30;99.90;;;;;;4972828;28;20183;-70
2023/01/12 04:36:43;;;;;;;9.77;4.20;;;31.60;99.90;;;;;;4972667;28;20183;-73
2023/01/12 04:39:10;;;;;;;6.93;3.37;;;31.60;99.90;;;;;;4986012;28;20611;-70
2023/01/12 04:41:38;;;;;;;12.47;4.60;;;31.60;99.90;;;;;;4993299;28;20686;-70
2023/01/12 04:44:05;;;;;;;7.37;3.87;;;31.40;99.90;;;;;;4993214;28;20576;-69
2023/01/12 04:46:34;;;;;;;7.33;4.10;;;31.40;99.90;;;;;;4983286;28;20190;-69
2023/01/12 04:49:01;;;;;;;11.35;3.25;;;31.40;99.90;;;;;;4973885;28;20186;-69
2023/01/12 04:51:29;;;;;;;6.53;3.10;;;31.40;99.90;;;;;;4973627;28;20181;-73
2023/01/12 04:53:56;;;;;;;11.27;3.00;;;31.70;99.90;;;;;;4973616;28;20198;-69
2023/01/12 04:56:24;;;;;;;9.63;3.10;;;31.60;99.90;;;;;;4973006;28;20202;-73
2023/01/12 04:58:58;;;;;;;5.77;3.20;;;31.20;99.90;;;;;;4973406;28;20230;-71
2023/01/12 05:01:28;;;;;;;10.13;3.37;;;31.30;99.90;;;;;;4975897;28;20530;-70
2023/01/12 05:03:59;;;;;;;6.90;2.77;;;31.70;99.90;;;;;;4979778;28;20215;-74
2023/01/12 05:06:27;;;;;;;7.13;2.73;;;31.40;99.90;;;;;;4972951;28;20587;-70
2023/01/12 05:11:41;;;;;;;5.87;3.00;;;31.10;99.90;;;;;;4969884;28;20337;-72
2023/01/12 05:14:08;;;;;;;6.77;3.23;;;31.10;99.90;;;;;;4973143;28;20235;-72
2023/01/12 05:16:35;;;;;;;6.63;3.80;;;30.90;99.90;;;;;;4973204;28;20175;-69
2023/01/12 05:19:03;;;;;;;6.57;3.30;;;30.70;99.90;;;;;;4973004;28;20171;-69
2023/01/12 05:21:30;;;;;;;8.30;2.80;;;31.10;99.90;;;;;;4973125;28;20178;-71
2023/01/12 05:23:57;;;;;;;4.80;3.13;;;31.10;99.90;;;;;;4972822;28;20381;-71
2023/01/12 05:26:25;;;;;;;8.37;3.30;;;30.80;99.90;;;;;;4953783;28;20693;-70
2023/01/12 05:28:52;;;;;;;6.63;3.17;;;30.50;99.90;;;;;;4953551;29;20183;-73
2023/01/12 05:31:20;;;;;;;8.93;3.30;;;30.60;99.90;;;;;;4955618;28;20222;-72
2023/01/12 05:33:48;;;;;;;6.80;3.20;;;30.50;99.90;;;;;;4973717;28;20194;-75
2023/01/12 05:36:16;;;;;;;6.77;3.07;;;30.60;99.90;;;;;;4956479;28;20222;-72
2023/01/12 05:38:44;;;;;;;5.03;2.77;;;30.60;99.90;;;;;;4973429;28;20642;-71
2023/01/12 05:41:13;;;;;;;7.40;3.00;;;30.70;99.90;;;;;;4973517;28;20243;-72
2023/01/12 05:43:50;;;;;;;5.23;2.63;;;30.70;99.90;;;;;;4973713;28;20709;-69
2023/01/12 05:46:23;;;;;;;7.53;2.93;;;30.50;99.90;;;;;;4970418;28;20179;-72
2023/01/12 05:48:52;;;;;;;8.67;3.10;;;30.70;99.90;;;;;;4972709;28;20183;-69
2023/01/12 05:51:20;;;;;;;7.23;2.80;;;30.50;99.90;;;;;;4972635;28;20175;-69
2023/01/12 05:53:48;;;;;;;6.40;3.03;;;30.30;99.90;;;;;;4972390;28;20595;-74
2023/01/12 05:56:27;;;;;;;7.50;3.57;;;30.30;99.90;;;;;;4954473;28;20187;-72
2023/01/12 05:59:00;;;;;;;11.77;3.03;;;30.50;99.90;;;;;;4972199;28;20190;-72
2023/01/12 06:01:28;;;;;;;8.53;3.80;;;30.70;99.90;;;;;;4972811;28;20645;-73
2023/01/12 06:03:58;;;;;;;7.03;3.63;;;30.40;99.90;;;;;;4972079;28;20688;-70
2023/01/12 06:06:29;;;;;;;11.53;4.07;;;30.20;99.90;;;;;;4973929;28;20271;-72
2023/01/12 06:08:58;;;;;;;6.50;4.23;;;30.10;99.90;;;;;;4976063;28;20194;-71
2023/01/12 06:14:11;;;;;;;5.87;3.43;;;29.90;99.90;;;;;;4976535;28;20304;-71
2023/01/12 06:16:40;;;;;;;7.17;3.17;;;30.40;99.90;;;;;;4958833;28;20195;-72
2023/01/12 06:19:08;;;;;;;5.63;3.17;;;30.10;99.90;;;;;;4975588;28;20249;-70
2023/01/12 06:21:37;;;;;;;4.93;3.00;;;29.90;99.90;;;;;;4976171;28;20187;-70
2023/01/12 06:24:05;;;;;;;6.67;2.90;;;29.60;99.90;;;;;;4975736;28;20657;-71
2023/01/12 06:26:32;;;;;;;5.23;2.97;;;29.80;99.90;;;;;;4975603;28;20179;-70
2023/01/12 06:29:00;;;;;;;5.33;2.60;;;29.60;99.90;;;;;;4987621;28;20277;-71
2023/01/12 06:31:27;;;;;;;6.97;2.53;;;29.10;99.90;;;;;;4991799;28;21872;-69
2023/01/12 06:33:55;;;;;;;6.63;2.73;;;28.80;99.90;;;;;;4975495;28;20203;-69
2023/01/12 06:36:22;;;;;;;6.10;2.80;;;29.30;99.90;;;;;;4975755;28;20558;-70
2023/01/12 06:38:49;;;;;;;4.90;2.77;;;29.40;99.90;;;;;;4991668;28;20193;-70
2023/01/12 06:44:02;;;;;;;4.73;2.40;;;28.80;99.90;;;;;;4984178;28;20253;-69
2023/01/12 06:46:30;;;;;;;4.97;2.63;;;28.70;99.90;;;;;;4975623;28;20219;-69
2023/01/12 06:48:58;;;;;;;3.53;2.30;;;28.80;99.90;;;;;;4975310;28;20207;-70
2023/01/12 06:51:26;;;;;;;5.33;2.40;;;28.60;99.90;;;;;;4958283;28;20187;-70
2023/01/12 06:53:53;;;;;;;4.53;2.20;;;28.20;99.90;;;;;;4975480;28;20668;-70
2023/01/12 06:56:21;;;;;;;4.53;1.97;;;28.40;99.90;;;;;;4975122;28;20207;-69
2023/01/12 06:58:48;;;;;;;3.73;2.30;;;28.30;99.90;;;;;;4975429;28;20195;-69
2023/01/12 07:01:16;;;;;;;4.20;1.40;;;28.40;99.90;;;;;;4975522;28;20534;-69
2023/01/12 07:03:43;;;;;;;4.93;1.70;;;28.40;99.90;;;;;;4975313;28;20699;-71
2023/01/12 07:06:13;;;;;;;5.40;1.80;;;28.30;99.90;;;;;;4979376;28;20207;-69
2023/01/12 07:08:42;;;;;;;3.93;1.60;;;28.40;99.90;;;;;;4975499;28;20566;-68
2023/01/12 07:11:13;;;;;;;6.23;1.90;;;28.30;99.90;;;;;;4990040;28;20184;-69
2023/01/12 07:13:41;;;;;;;3.27;1.53;;;28.00;99.90;;;;;;4990255;28;20226;-71
2023/01/12 07:16:08;;;;;;;3.73;1.70;;;27.90;99.90;;;;;;4936259;29;20920;-71
2023/01/12 07:18:39;;;;;;;3.90;1.80;;;27.90;99.90;;;;;;4943273;29;20727;-68
2023/01/12 07:21:12;;;;;;;4.03;1.77;;;27.90;99.90;;;;;;4937936;29;20177;-70
2023/01/12 07:23:42;;;;;;;4.00;1.47;;;27.90;99.90;;;;;;4936220;29;20255;-69
2023/01/12 07:26:10;;;;;;;3.43;1.23;;;27.70;99.90;;;;;;4934854;29;20544;-71
2023/01/12 07:28:38;;;;;;;2.67;1.40;;;27.50;99.90;;;;;;4936460;29;20181;-69
2023/01/12 07:31:06;;;;;;;3.37;1.43;;;27.50;99.90;;;;;;4936326;29;20280;-72
2023/01/12 07:33:36;;;;;;;3.67;1.17;;;27.30;99.90;;;;;;4935682;29;20185;-70
2023/01/12 07:36:04;;;;;;;2.07;0.90;;;27.40;99.90;;;;;;4936429;29;20542;-70
2023/01/12 07:38:32;;;;;;;5.43;1.40;;;27.40;99.90;;;;;;4936491;29;20264;-70
2023/01/12 07:41:01;;;;;;;4.90;1.50;;;27.10;99.90;;;;;;4936001;29;20710;-70
2023/01/12 07:43:29;;;;;;;6.83;1.50;;;26.70;99.90;;;;;;4936044;29;20323;-72
2023/01/12 07:45:58;;;;;;;4.73;1.50;;;26.60;99.90;;;;;;4936279;29;20268;-70
2023/01/12 07:48:26;;;;;;;3.20;1.70;;;26.50;99.90;;;;;;4935687;29;20554;-73
2023/01/12 07:50:53;;;;;;;3.57;1.53;;;26.20;99.90;;;;;;4936281;29;20239;-69
2023/01/12 07:53:21;;;;;;;3.87;1.40;;;26.00;99.90;;;;;;4935936;29;20254;-69
2023/01/12 07:55:48;;;;;;;2.97;1.47;;;25.90;99.90;;;;;;4935538;29;20177;-72
2023/01/12 07:58:16;;;;;;;4.27;1.30;;;25.70;99.90;;;;;;4935991;29;20632;-71
2023/01/12 08:00:43;;;;;;;3.03;1.43;;;25.60;99.90;;;;;;4935999;29;20276;-72
2023/01/12 08:03:15;;;;;;;4.57;1.37;;;25.60;99.90;;;;;;4935443;29;20211;-73
2023/01/12 08:05:43;;;;;;;5.97;1.40;;;25.50;99.90;;;;;;4940792;29;20545;-69
2023/01/12 08:08:10;;;;;;;5.20;1.20;;;25.40;99.90;;;;;;4935717;29;20173;-70
2023/01/12 08:10:38;;;;;;;8.70;1.47;;;25.40;99.90;;;;;;4935500;29;20255;-70
2023/01/12 08:13:05;;;;;;;5.40;1.40;;;25.20;99.90;;;;;;4935936;29;20263;-70
2023/01/12 08:15:38;;;;;;;4.90;1.40;;;25.10;99.90;;;;;;4965163;28;20219;-72
2023/01/12 08:18:17;;;;;;;4.50;1.30;;;25.00;99.90;;;;;;4973709;28;20704;-69
2023/01/12 08:20:45;;;;;;;6.20;0.97;;;24.90;99.90;;;;;;4974200;28;20178;-73
2023/01/12 08:23:22;;;;;;;3.20;1.30;;;24.80;99.90;;;;;;4974733;28;20214;-72
2023/01/12 08:25:55;;;;;;;10.87;1.87;;;24.80;99.90;;;;;;4973665;28;20183;-68
2023/01/12 08:28:37;;;;;;;4.53;1.10;;;24.80;99.90;;;;;;4973972;28;20211;-71
2023/01/12 08:31:09;;;;;;;6.90;1.43;;;24.70;99.90;;;;;;4974028;28;20648;-69
2023/01/12 08:33:38;;;;;;;3.53;1.23;;;24.60;99.90;;;;;;4974034;28;20531;-70
2023/01/12 08:36:08;;;;;;;11.37;1.93;;;24.60;99.90;;;;;;4973727;28;20183;-70
2023/01/12 08:38:35;;;;;;;6.30;1.13;;;24.60;99.90;;;;;;4973744;28;20182;-69
2023/01/12 08:44:05;;;;;;;7.97;1.60;;;24.50;99.90;;;;;;4973796;28;20292;-71
2023/01/12 08:47:00;;;;;;;9.70;1.83;;;24.30;99.90;;;;;;4973109;28;20182;-70
2023/01/12 08:49:29;;;;;;;7.03;1.90;;;24.30;99.90;;;;;;4953456;28;20673;-72
2023/01/12 08:51:57;;;;;;;5.30;1.30;;;24.10;99.90;;;;;;4973407;28;20699;-72
2023/01/12 08:54:25;;;;;;;6.20;1.37;;;24.10;99.90;;;;;;4973325;28;20186;-71
2023/01/12 08:56:53;;;;;;;5.37;1.33;;;24.10;99.90;;;;;;4973371;28;20569;-73
2023/01/12 08:59:21;;;;;;;12.27;2.37;;;24.00;99.90;;;;;;4973524;28;20182;-70
2023/01/12 09:01:48;;;;;;;7.60;1.60;;;24.00;99.90;;;;;;4981059;28;20190;-69
2023/01/12 09:04:16;;;;;;;7.53;1.90;;;23.90;99.90;;;;;;4973928;28;20250;-71
2023/01/12 09:06:45;;;;;;;6.33;1.23;;;23.80;99.90;;;;;;4974191;28;20183;-72
2023/01/12 09:09:17;;;;;;;3.47;1.67;;;23.80;99.90;;;;;;4974286;28;20251;-70
2023/01/12 09:11:46;;;;;;;6.00;1.67;;;23.70;99.90;;;;;;4974470;28;20234;-69
2023/01/12 09:14:14;;;;;;;5.23;1.50;;;23.70;99.90;;;;;;4974088;28;20255;-72
2023/01/12 09:16:42;;;;;;;3.87;1.20;;;23.60;99.90;;;;;;4974170;28;20263;-69
2023/01/12 09:19:10;;;;;;;5.10;1.43;;;23.60;99.90;;;;;;4974287;28;20202;-73
2023/01/12 09:21:40;;;;;;;7.63;2.00;;;23.50;99.90;;;;;;4974322;28;20183;-70
2023/01/12 09:24:07;;;;;;;6.17;1.47;;;23.50;99.90;;;;;;4974155;28;20217;-71
2023/01/12 09:26:43;;;;;;;6.80;2.07;;;23.50;99.90;;;;;;4974136;28;20210;-73
2023/01/12 09:29:12;;;;;;;6.63;1.50;;;23.50;99.90;;;;;;4974527;28;20182;-71
2023/01/12 09:31:42;;;;;;;5.70;1.50;;;23.50;99.90;;;;;;4974039;28;20656;-72
2023/01/12 09:34:10;;;;;;;4.07;1.30;;;23.40;99.90;;;;;;4974176;28;20185;-69
2023/01/12 09:36:39;;;;;;;9.57;1.87;;;23.50;99.90;;;;;;4974020;28;20202;-70
2023/01/12 09:39:07;;;;;;;6.10;1.50;;;23.40;99.90;;;;;;4974331;28;20183;-70
2023/01/12 09:48:11;;;;;;;5.97;1.40;;;23.20;99.90;;;;;;4899900;28;20313;-72
2023/01/12 09:51:13;;;;;;;9.23;1.67;;;23.20;99.90;;;;;;4974068;28;20176;-73
2023/01/12 09:53:41;;;;;;;5.93;1.77;;;23.20;99.90;;;;;;4944398;28;20195;-70
2023/01/12 09:56:18;;;;;;;8.47;1.93;;;23.20;99.90;;;;;;4973193;28;20248;-68
2023/01/12 09:59:06;;;;;;;14.27;2.10;;;23.20;99.90;;;;;;4990895;28;20216;-71
2023/01/12 10:01:36;;;;;;;6.33;2.13;;;23.10;99.90;;;;;;4990490;28;20300;-69
2023/01/12 10:04:04;;;;;;;7.80;2.07;;;23.00;99.90;;;;;;4973818;28;20235;-70
2023/01/12 10:06:33;;;;;;;12.77;2.63;;;23.00;99.90;;;;;;4955990;28;20190;-72
2023/01/12 10:09:06;;;;;;;7.67;2.37;;;23.00;99.90;;;;;;4973301;28;20213;-71
2023/01/12 10:11:51;;;;;;;5.70;2.07;;;22.90;99.90;;;;;;4973781;28;20175;-70
2023/01/12 10:14:33;;;;;;;8.63;2.13;;;22.80;99.90;;;;;;4973695;28;20281;-72
2023/01/12 10:17:29;;;;;;;10.87;2.60;;;22.90;99.90;;;;;;4973846;28;20176;-69
2023/01/12 10:20:11;;;;;;;9.50;2.40;;;22.90;99.90;;;;;;4937342;29;20215;-72
2023/01/12 10:22:54;;;;;;;7.87;2.00;;;22.80;99.90;;;;;;4954637;29;20532;-71
2023/01/12 10:25:47;;;;;;;6.73;2.10;;;22.80;99.90;;;;;;4952955;28;20204;-70
2023/01/12 10:28:45;;;;;;;6.10;1.67;;;22.80;99.90;;;;;;4973546;28;20187;-69
2023/01/12 10:31:24;;;;;;;6.53;1.70;;;22.80;99.90;;;;;;4962115;28;20618;-72
2023/01/12 10:34:07;;;;;;;12.87;2.23;;;22.70;99.90;;;;;;4973625;28;20699;-70
2023/01/12 10:36:59;;;;;;;7.40;2.70;;;22.70;99.90;;;;;;4973588;28;20648;-72
2023/01/12 10:39:38;;;;;;;6.00;1.70;;;22.60;99.90;;;;;;4973716;28;20171;-71
2023/01/12 10:45:15;;;;;;;7.33;1.80;;;22.50;99.90;;;;;;4967288;28;20204;-71
2023/01/12 10:47:45;;;;;;;8.50;2.23;;;22.50;99.90;;;;;;4973331;28;20183;-69
2023/01/12 10:50:23;;;;;;;7.43;2.00;;;22.50;99.90;;;;;;4973608;28;20636;-69
2023/01/12 10:52:57;;;;;;;11.57;2.27;;;22.50;99.90;;;;;;4975457;28;20171;-72
2023/01/12 10:55:31;;;;;;;10.50;2.43;;;22.60;99.90;;;;;;4976680;28;20276;-69
2023/01/12 10:57:59;;;;;;;7.03;2.37;;;22.50;99.90;;;;;;4976327;28;20218;-70
2023/01/12 11:00:28;;;;;;;8.90;1.90;;;22.40;99.90;;;;;;4976835;28;20175;-70
2023/01/12 11:02:56;;;;;;;11.10;2.20;;;22.30;99.90;;;;;;4976795;28;20203;-69
2023/01/12 11:05:37;;;;;;;5.53;1.70;;;22.40;99.90;;;;;;4976403;28;20277;-71
2023/01/12 11:08:28;;;;;;;5.67;1.67;;;22.50;99.90;;;;;;4959305;28;20194;-71
2023/01/12 11:10:56;;;;;;;13.33;2.30;;;22.50;99.90;;;;;;4976093;28;20223;-68
2023/01/12 11:13:26;;;;;;;6.83;1.50;;;22.40;99.90;;;;;;4975959;28;20179;-69
2023/01/12 11:16:18;;;;;;;7.43;1.80;;;22.40;99.90;;;;;;4976301;28;20234;-69
2023/01/12 11:19:11;;;;;;;3.50;1.60;;;22.40;99.90;;;;;;4958942;28;20271;-69
2023/01/12 11:21:43;;;;;;;5.67;1.63;;;22.30;99.90;;;;;;4975830;28;20550;-69
2023/01/12 11:24:13;;;;;;;4.90;1.40;;;22.30;99.90;;;;;;4975682;28;20226;-71
2023/01/12 11:26:58;;;;;;;6.03;2.13;;;22.30;99.90;;;;;;4975246;28;20711;-69
2023/01/12 11:29:46;;;;;;;3.47;1.23;;;22.20;99.90;;;;;;4963333;28;20183;-70
2023/01/12 11:32:24;;;;;;;6.33;1.47;;;22.10;99.90;;;;;;4975754;28;20202;-69
2023/01/12 11:35:21;;;;;;;3.10;1.23;;;22.00;99.90;;;;;;4975832;28;20179;-71
2023/01/12 11:37:51;;;;;;;6.63;1.80;;;22.00;99.90;;;;;;4960053;28;20198;-69
2023/01/12 11:40:32;;;;;;;6.67;1.80;;;22.00;99.90;;;;;;4975486;28;20227;-69
2023/01/12 11:46:25;;;;;;;8.30;1.90;;;22.00;99.90;;;;;;4956743;28;20703;-69
2023/01/12 11:48:55;;;;;;;4.07;1.30;;;21.90;99.90;;;;;;4975092;28;20181;-68
2023/01/12 11:51:23;;;;;;;7.43;1.70;;;21.90;99.90;;;;;;4975466;28;20234;-71
2023/01/12 11:53:50;;;;;;;7.27;2.07;;;21.90;99.90;;;;;;4975537;28;20201;-69
2023/01/12 11:56:29;;;;;;;4.40;1.70;;;21.80;99.90;;;;;;4975401;28;20217;-69
2023/01/12 11:59:21;;;;;;;4.00;1.77;;;21.80;99.90;;;;;;4955860;28;20288;-69
2023/01/12 12:01:56;;;;;;;7.13;1.77;;;21.80;99.90;;;;;;4955708;29;20187;-69
2023/01/12 12:05:01;;;;;;;7.80;1.77;;;21.80;99.90;;;;;;4967721;28;20269;-69
2023/01/12 12:07:50;;;;;;;9.57;1.87;;;21.80;99.90;;;;;;4954050;28;20193;-69
2023/01/12 12:10:22;;;;;;;4.50;1.70;;;21.80;99.90;;;;;;4974883;28;20179;-72
2023/01/12 12:13:15;;;;;;;6.30;1.60;;;21.70;99.90;;;;;;4974820;28;20534;-72
2023/01/12 12:16:28;;;;;;;9.53;2.13;;;21.70;99.90;;;;;;4974508;28;20247;-69
2023/01/12 12:19:01;;;;;;;3.63;2.30;;;21.70;99.90;;;;;;4947035;28;20195;-72
2023/01/12 12:21:47;;;;;;;6.97;2.10;;;21.70;99.90;;;;;;4955574;29;20183;-71
2023/01/12 12:24:53;;;;;;;7.40;1.67;;;21.70;99.90;;;;;;4957857;28;20265;-69
2023/01/12 12:27:37;;;;;;;7.23;1.80;;;21.60;99.90;;;;;;4967524;28;20194;-69
2023/01/12 12:30:42;;;;;;;4.73;1.70;;;21.60;99.90;;;;;;4975013;28;20183;-69
2023/01/12 12:33:37;;;;;;;7.03;2.17;;;21.60;99.90;;;;;;4975122;28;20221;-70
2023/01/12 12:36:38;;;;;;;4.90;1.80;;;21.50;99.90;;;;;;4975385;28;20186;-70
2023/01/12 12:39:20;;;;;;;5.53;2.10;;;21.50;99.90;;;;;;4972082;28;20220;-68
2023/01/12 12:45:18;;;;;;;5.33;1.83;;;21.40;99.90;;;;;;4974945;28;20221;-70
2023/01/12 12:48:01;;;;;;;5.20;1.83;;;21.40;99.90;;;;;;4975316;28;20293;-71
2023/01/12 12:50:31;;;;;;;7.20;1.70;;;21.30;99.90;;;;;;4974651;28;20184;-68
2023/01/12 12:53:22;;;;;;;7.43;2.07;;;21.30;99.90;;;;;;4974927;28;20213;-72
2023/01/12 12:55:52;;;;;;;6.73;2.20;;;21.30;99.90;;;;;;4974906;28;20719;-71
2023/01/12 12:58:22;;;;;;;5.37;2.17;;;21.30;99.90;;;;;;4974859;28;20656;-72
2023/01/12 13:00:55;;;;;;;7.40;2.10;;;21.30;99.90;;;;;;4974397;28;20206;-69
2023/01/12 13:03:41;;;;;;;6.90;2.00;;;21.20;99.90;;;;;;4974253;28;20222;-71
2023/01/12 13:06:41;;;;;;;6.20;1.70;;;21.20;99.90;;;;;;4974740;28;20263;-69
2023/01/12 13:09:14;;;;;;;4.53;1.57;;;21.20;99.90;;;;;;4964124;28;20188;-69
2023/01/12 13:11:57;;;;;;;4.93;1.90;;;21.10;99.90;;;;;;4974688;28;20175;-72
2023/01/12 13:14:26;;;;;;;8.30;1.80;;;21.10;99.90;;;;;;4974547;28;20280;-69
2023/01/12 13:16:59;;;;;;;8.13;2.17;;;21.00;99.90;;;;;;4972743;28;20191;-70
2023/01/12 13:19:47;;;;;;;7.37;2.10;;;21.00;99.90;;;;;;4974129;28;20194;-71
2023/01/12 13:22:31;;;;;;;6.30;2.03;;;21.00;99.90;;;;;;4974769;28;20167;-70
2023/01/12 13:25:01;;;;;;;8.67;2.00;;;20.90;99.90;;;;;;4956818;28;20563;-70
2023/01/12 13:27:46;;;;;;;5.77;1.83;;;20.80;99.90;;;;;;4974358;28;20177;-66
2023/01/12 13:30:34;;;;;;;6.77;1.87;;;20.80;99.90;;;;;;4974199;28;20194;-68
2023/01/12 13:33:16;;;;;;;5.20;1.93;;;20.80;99.90;;;;;;4974597;28;20190;-68
2023/01/12 13:35:44;;;;;;;4.63;1.90;;;20.70;99.90;;;;;;4974429;28;20187;-71
2023/01/12 13:38:39;;;;;;;4.63;1.87;;;20.70;99.90;;;;;;4974343;28;20652;-69
2023/01/12 13:41:13;;;;;;;4.60;1.60;;;20.70;99.90;;;;;;4973854;28;20191;-69
2023/01/12 13:43:54;;;;;;;3.57;1.90;;;20.70;99.90;;;;;;4974256;28;20280;-70
2023/01/12 13:46:50;;;;;;;4.83;1.73;;;20.60;99.90;;;;;;4974215;28;20667;-70
2023/01/12 13:49:31;;;;;;;4.50;1.87;;;20.60;99.90;;;;;;4957227;28;20195;-71
2023/01/12 13:52:05;;;;;;;7.27;2.20;;;20.60;99.90;;;;;;4974141;28;20190;-72
2023/01/12 13:54:34;;;;;;;5.50;2.13;;;20.60;99.90;;;;;;4974295;28;20193;-71
2023/01/12 13:57:09;;;;;;;2.43;1.60;;;20.60;99.90;;;;;;4974271;28;20190;-69
2023/01/12 13:59:36;;;;;;;6.37;2.20;;;20.60;99.90;;;;;;4973642;28;20182;-71
2023/01/12 14:02:16;;;;;;;5.63;1.70;;;20.60;99.90;;;;;;4974194;28;20266;-69
2023/01/12 14:04:56;;;;;;;4.23;2.00;;;20.60;99.90;;;;;;4973746;28;20250;-68
2023/01/12 14:07:39;;;;;;;4.90;2.00;;;20.60;99.90;;;;;;4974266;28;20172;-69
2023/01/12 14:10:23;;;;;;;5.00;1.77;;;20.60;99.90;;;;;;4974030;28;20194;-69